createdAt,value
2019-01-16T00:01:43.130Z,6.85
2019-01-16T00:04:28.540Z,6.85
2019-01-16T00:06:58.620Z,6.88
2019-01-16T00:09:31.420Z,6.88
2019-01-16T00:12:10.646Z,6.92
2019-01-16T00:14:43.222Z,6.90
2019-01-16T00:17:29.507Z,6.90
2019-01-16T00:19:59.614Z,6.92
2019-01-16T00:22:35.534Z,6.94
2019-01-16T00:25:06.736Z,6.90
2019-01-16T00:27:48.820Z,6.90
2019-01-16T00:30:24.896Z,7.01
2019-01-16T00:32:57.985Z,6.96
2019-01-16T00:35:37.108Z,6.93
2019-01-16T00:38:12.780Z,7.00
2019-01-16T00:40:48.431Z,6.98
2019-01-16T00:43:24.574Z,7.04
2019-01-16T00:46:00.754Z,7.11
2019-01-16T00:48:30.832Z,7.09
2019-01-16T00:51:17.182Z,7.06
2019-01-16T00:53:47.268Z,7.11
2019-01-16T00:56:33.532Z,7.08
2019-01-16T00:59:19.868Z,7.11
2019-01-16T01:01:52.594Z,7.12
2019-01-16T01:04:25.306Z,7.18
2019-01-16T01:06:55.422Z,7.21
2019-01-16T01:09:28.331Z,7.21
2019-01-16T01:11:58.421Z,7.22
2019-01-16T01:14:31.229Z,7.22
2019-01-16T01:17:17.587Z,7.25
2019-01-16T01:20:00.097Z,7.21
2019-01-16T01:22:30.379Z,7.23
2019-01-16T01:25:09.430Z,7.22
2019-01-16T01:27:45.439Z,7.23
2019-01-16T01:30:18.684Z,7.23
2019-01-16T01:32:51.522Z,7.25
2019-01-16T01:35:24.556Z,7.27
2019-01-16T01:37:54.651Z,7.28
2019-01-16T01:40:24.757Z,7.28
2019-01-16T01:42:54.841Z,7.26
2019-01-16T01:45:43.323Z,7.27
2019-01-16T01:48:13.410Z,7.27
2019-01-16T01:50:46.219Z,7.26
2019-01-16T01:53:16.317Z,7.29
2019-01-16T01:55:46.417Z,7.27
2019-01-16T01:58:28.443Z,7.27
2019-01-16T02:01:04.473Z,7.34
2019-01-16T02:03:40.196Z,7.36
2019-01-16T02:06:10.303Z,7.36
2019-01-16T02:08:40.392Z,7.36
2019-01-16T02:11:16.211Z,7.38
2019-01-16T02:13:49.081Z,7.39
2019-01-16T02:16:22.214Z,7.37
2019-01-16T02:19:04.397Z,7.41
2019-01-16T02:21:50.995Z,7.35
2019-01-16T02:24:36.419Z,7.32
2019-01-16T02:27:09.253Z,7.31
2019-01-16T02:29:55.779Z,7.35
2019-01-16T02:32:25.893Z,7.34
2019-01-16T02:35:14.068Z,7.33
2019-01-16T02:37:46.942Z,7.38
2019-01-16T02:40:17.058Z,7.34
2019-01-16T02:43:02.227Z,7.33
2019-01-16T02:45:37.899Z,7.37
2019-01-16T02:48:13.756Z,7.36
2019-01-16T02:50:49.863Z,7.32
2019-01-16T02:53:28.966Z,7.27
2019-01-16T02:56:08.128Z,7.23
2019-01-16T02:58:40.966Z,7.26
2019-01-16T03:01:11.068Z,7.21
2019-01-16T03:03:46.715Z,7.22
2019-01-16T03:06:28.842Z,7.22
2019-01-16T03:09:10.770Z,7.18
2019-01-16T03:11:57.321Z,7.16
2019-01-16T03:14:33.354Z,7.18
2019-01-16T03:17:19.779Z,7.15
2019-01-16T03:20:01.766Z,7.12
2019-01-16T03:22:37.936Z,7.13
2019-01-16T03:25:20.510Z,7.13
2019-01-16T03:27:53.328Z,7.04
2019-01-16T03:30:23.429Z,7.03
2019-01-16T03:33:10.198Z,7.02
2019-01-16T03:35:52.232Z,7.01
2019-01-16T03:38:28.060Z,6.97
2019-01-16T03:41:14.604Z,6.96
2019-01-16T03:44:02.938Z,6.92
2019-01-16T03:46:33.047Z,6.93
2019-01-16T03:49:19.794Z,6.94
2019-01-16T03:51:55.904Z,6.91
2019-01-16T03:54:41.851Z,6.94
2019-01-16T03:57:27.131Z,6.99
2019-01-16T04:00:00.282Z,6.93
2019-01-16T04:02:33.143Z,6.91
2019-01-16T04:05:06.230Z,6.88
2019-01-16T04:07:42.050Z,6.88
2019-01-16T04:10:16.828Z,6.95
2019-01-16T04:13:03.378Z,6.90
2019-01-16T04:15:36.470Z,6.93
2019-01-16T04:18:23.274Z,6.85
2019-01-16T04:20:53.424Z,6.87
2019-01-16T04:23:25.923Z,6.85
2019-01-16T04:26:12.405Z,6.90
2019-01-16T04:29:00.363Z,6.87
2019-01-16T04:31:30.453Z,6.86
2019-01-16T04:34:15.408Z,6.94
2019-01-16T04:36:48.250Z,7.02
2019-01-16T04:39:34.758Z,6.95
2019-01-16T04:42:10.682Z,6.91
2019-01-16T04:44:43.396Z,6.95
2019-01-16T04:47:16.217Z,7.01
2019-01-16T04:49:55.124Z,6.94
2019-01-16T04:52:37.094Z,7.01
2019-01-16T04:55:10.961Z,6.93
2019-01-16T04:57:46.709Z,7.00
2019-01-16T05:00:25.778Z,7.00
2019-01-16T05:02:55.849Z,6.98
2019-01-16T05:05:36.133Z,6.97
2019-01-16T05:08:06.391Z,6.97
2019-01-16T05:10:36.527Z,6.97
2019-01-16T05:13:15.596Z,6.98
2019-01-16T05:15:45.963Z,7.00
2019-01-16T05:18:16.043Z,6.91
2019-01-16T05:20:58.248Z,6.90
2019-01-16T05:23:28.324Z,6.96
2019-01-16T05:26:10.195Z,7.00
2019-01-16T05:28:42.980Z,7.02
2019-01-16T05:31:18.805Z,7.00
2019-01-16T05:33:51.593Z,6.91
2019-01-16T05:36:36.707Z,6.95
2019-01-16T05:39:11.186Z,7.00
2019-01-16T05:41:58.447Z,7.00
2019-01-16T05:44:28.544Z,7.01
2019-01-16T05:46:58.657Z,6.97
2019-01-16T05:49:31.678Z,6.98
2019-01-16T05:52:10.594Z,6.95
2019-01-16T05:54:40.681Z,7.03
2019-01-16T05:57:10.795Z,7.02
2019-01-16T05:59:53.107Z,7.02
2019-01-16T06:02:23.207Z,7.02
2019-01-16T06:04:55.998Z,7.08
2019-01-16T06:07:42.203Z,7.01
2019-01-16T06:10:23.384Z,7.03
2019-01-16T06:13:09.985Z,7.03
2019-01-16T06:15:40.081Z,7.05
2019-01-16T06:18:12.905Z,6.95
2019-01-16T06:20:43.065Z,6.97
2019-01-16T06:23:25.141Z,6.99
2019-01-16T06:25:55.220Z,6.99
2019-01-16T06:28:25.343Z,7.04
2019-01-16T06:31:11.642Z,7.01
2019-01-16T06:33:58.165Z,6.93
2019-01-16T06:36:40.559Z,6.92
2019-01-16T06:39:10.886Z,7.02
2019-01-16T06:41:46.965Z,6.98
2019-01-16T06:44:17.080Z,6.92
2019-01-16T06:46:47.175Z,6.97
2019-01-16T06:49:29.151Z,6.96
2019-01-16T06:52:03.513Z,6.92
2019-01-16T06:54:46.501Z,6.97
2019-01-16T06:57:16.596Z,6.97
2019-01-16T06:59:55.644Z,6.97
2019-01-16T07:02:25.774Z,6.89
2019-01-16T07:04:55.866Z,6.85
2019-01-16T07:07:44.294Z,6.89
2019-01-16T07:10:14.619Z,6.87
2019-01-16T07:12:47.477Z,6.82
2019-01-16T07:15:26.761Z,6.86
2019-01-16T07:18:11.590Z,6.83
2019-01-16T07:20:41.722Z,6.83
2019-01-16T07:23:28.215Z,6.85
2019-01-16T07:25:58.341Z,6.91
2019-01-16T07:28:34.164Z,6.82
2019-01-16T07:31:19.012Z,6.91
2019-01-16T07:34:03.870Z,6.89
2019-01-16T07:36:33.996Z,6.85
2019-01-16T07:39:16.285Z,6.92
2019-01-16T07:42:01.355Z,6.98
2019-01-16T07:44:31.473Z,7.01
2019-01-16T07:47:18.034Z,7.00
2019-01-16T07:50:03.458Z,6.99
2019-01-16T07:52:36.534Z,6.96
2019-01-16T07:55:27.287Z,6.98
2019-01-16T07:58:00.124Z,6.97
2019-01-16T08:00:37.711Z,6.99
2019-01-16T08:03:10.733Z,7.04
2019-01-16T08:05:43.774Z,7.06
2019-01-16T08:08:30.253Z,7.06
2019-01-16T08:11:02.974Z,7.03
2019-01-16T08:13:34.039Z,6.94
2019-01-16T08:16:20.907Z,6.91
2019-01-16T08:19:07.361Z,6.94
2019-01-16T08:21:53.242Z,7.00
2019-01-16T08:24:39.920Z,7.13
2019-01-16T08:27:22.352Z,7.07
2019-01-16T08:30:01.470Z,7.01
2019-01-16T08:32:47.935Z,7.01
2019-01-16T08:35:18.192Z,7.07
2019-01-16T08:37:54.457Z,7.08
2019-01-16T08:40:36.537Z,7.06
2019-01-16T08:43:22.848Z,7.09
2019-01-16T08:45:55.526Z,7.16
2019-01-16T08:48:25.623Z,7.08
2019-01-16T08:50:55.777Z,7.19
2019-01-16T08:53:25.843Z,7.17
2019-01-16T08:56:12.102Z,7.19
2019-01-16T08:58:42.193Z,7.26
2019-01-16T09:01:32.495Z,7.23
2019-01-16T09:04:15.774Z,7.28
2019-01-16T09:06:51.921Z,7.32
2019-01-16T09:09:24.819Z,7.22
2019-01-16T09:12:09.960Z,7.25
2019-01-16T09:14:55.943Z,7.18
2019-01-16T09:17:42.694Z,7.29
2019-01-16T09:20:19.849Z,7.40
2019-01-16T09:22:58.921Z,7.26
2019-01-16T09:25:29.033Z,7.36
2019-01-16T09:27:59.146Z,7.28
2019-01-16T09:30:44.475Z,7.30
2019-01-16T09:33:23.523Z,7.27
2019-01-16T09:35:53.629Z,7.38
2019-01-16T09:38:32.878Z,7.27
2019-01-16T09:41:03.010Z,7.28
2019-01-16T09:43:38.843Z,7.34
2019-01-16T09:46:08.943Z,7.35
2019-01-16T09:48:48.315Z,7.29
2019-01-16T09:51:27.519Z,7.31
2019-01-16T09:54:15.423Z,7.20
2019-01-16T09:57:01.951Z,7.21
2019-01-16T09:59:44.173Z,7.22
2019-01-16T10:02:30.471Z,7.10
2019-01-16T10:05:09.842Z,7.14
2019-01-16T10:07:39.916Z,7.09
2019-01-16T10:10:12.609Z,6.97
2019-01-16T10:12:56.207Z,7.03
2019-01-16T10:15:35.098Z,7.10
2019-01-16T10:18:21.810Z,7.05
2019-01-16T10:20:55.860Z,7.12
2019-01-16T10:23:26.238Z,7.19
2019-01-16T10:26:11.382Z,7.22
2019-01-16T10:28:59.565Z,7.04
2019-01-16T10:31:29.653Z,7.24
2019-01-16T10:34:02.735Z,7.15
2019-01-16T10:36:32.823Z,7.18
2019-01-16T10:39:05.624Z,7.05
2019-01-16T10:41:41.658Z,6.98
2019-01-16T10:44:20.796Z,7.16
2019-01-16T10:46:50.879Z,7.11
2019-01-16T10:49:24.798Z,7.07
2019-01-16T10:52:03.992Z,7.05
2019-01-16T10:54:45.949Z,7.15
2019-01-16T10:57:27.744Z,7.21
2019-01-16T11:00:06.820Z,7.16
2019-01-16T11:02:48.595Z,7.31
2019-01-16T11:05:34.610Z,7.28
2019-01-16T11:08:07.614Z,7.20
2019-01-16T11:10:49.534Z,7.22
2019-01-16T11:13:22.598Z,7.29
2019-01-16T11:16:01.404Z,7.25
2019-01-16T11:18:47.727Z,7.36
2019-01-16T11:21:33.766Z,7.34
2019-01-16T11:24:03.838Z,7.33
2019-01-16T11:26:40.158Z,7.38
2019-01-16T11:29:10.262Z,7.55
2019-01-16T11:31:43.040Z,7.53
2019-01-16T11:34:13.201Z,7.63
2019-01-16T11:36:43.312Z,7.68
2019-01-16T11:39:13.397Z,7.61
2019-01-16T11:41:46.460Z,7.74
2019-01-16T11:44:22.379Z,7.70
2019-01-16T11:47:04.581Z,7.60
2019-01-16T11:49:51.056Z,7.78
2019-01-16T11:52:21.184Z,7.79
2019-01-16T11:54:51.276Z,7.85
2019-01-16T11:57:36.369Z,7.77
2019-01-16T12:00:09.505Z,7.90
2019-01-16T12:02:50.343Z,7.93
2019-01-16T12:05:26.442Z,8.00
2019-01-16T12:08:05.519Z,7.98
2019-01-16T12:10:47.702Z,7.94
2019-01-16T12:13:36.119Z,7.94
2019-01-16T12:16:09.087Z,7.91
2019-01-16T12:18:41.938Z,7.81
2019-01-16T12:21:28.473Z,7.83
2019-01-16T12:23:58.642Z,7.87
2019-01-16T12:26:44.025Z,7.87
2019-01-16T12:29:17.615Z,7.78
2019-01-16T12:31:47.712Z,7.84
2019-01-16T12:34:24.825Z,7.92
2019-01-16T12:37:03.798Z,7.80
2019-01-16T12:39:50.135Z,7.84
2019-01-16T12:42:26.221Z,7.77
2019-01-16T12:45:02.573Z,7.80
2019-01-16T12:47:44.388Z,7.69
2019-01-16T12:50:31.675Z,7.70
2019-01-16T12:53:17.153Z,7.78
2019-01-16T12:56:05.438Z,7.77
2019-01-16T12:58:41.281Z,7.77
2019-01-16T13:01:23.381Z,7.72
2019-01-16T13:03:56.148Z,7.77
2019-01-16T13:06:44.307Z,7.86
2019-01-16T13:09:20.226Z,7.76
2019-01-16T13:12:01.961Z,7.70
2019-01-16T13:14:48.422Z,7.72
2019-01-16T13:17:18.500Z,7.79
2019-01-16T13:19:57.469Z,7.72
2019-01-16T13:22:36.273Z,7.73
2019-01-16T13:25:25.683Z,7.73
2019-01-16T13:28:01.704Z,7.70
2019-01-16T13:30:34.978Z,7.64
2019-01-16T13:33:11.190Z,7.64
2019-01-16T13:35:57.450Z,7.79
2019-01-16T13:38:43.976Z,7.76
2019-01-16T13:41:14.083Z,7.66
2019-01-16T13:43:50.016Z,7.70
2019-01-16T13:46:23.082Z,7.78
2019-01-16T13:49:04.846Z,7.68
2019-01-16T13:51:34.956Z,7.70
2019-01-16T13:54:14.119Z,7.70
2019-01-16T13:57:00.428Z,7.75
2019-01-16T13:59:42.414Z,7.58
2019-01-16T14:02:27.468Z,7.69
2019-01-16T14:04:57.547Z,7.72
2019-01-16T14:07:27.640Z,7.69
2019-01-16T14:10:12.693Z,7.57
2019-01-16T14:12:45.366Z,7.65
2019-01-16T14:15:16.446Z,7.61
2019-01-16T14:17:55.606Z,7.51
2019-01-16T14:20:31.690Z,7.61
2019-01-16T14:23:07.548Z,7.59
2019-01-16T14:25:52.709Z,7.54
2019-01-16T14:28:25.777Z,7.64
2019-01-16T14:30:55.920Z,7.63
2019-01-16T14:33:41.076Z,7.37
2019-01-16T14:36:27.471Z,7.58
2019-01-16T14:39:06.559Z,7.59
2019-01-16T14:41:36.637Z,7.57
2019-01-16T14:44:12.932Z,7.60
2019-01-16T14:46:51.968Z,7.51
2019-01-16T14:49:33.792Z,7.48
2019-01-16T14:52:03.894Z,7.57
2019-01-16T14:54:34.010Z,7.64
2019-01-16T14:57:12.556Z,7.65
2019-01-16T14:59:42.665Z,7.66
2019-01-16T15:02:15.311Z,7.53
2019-01-16T15:04:45.447Z,7.53
2019-01-16T15:07:31.882Z,7.52
2019-01-16T15:10:04.786Z,7.51
2019-01-16T15:12:34.873Z,7.48
2019-01-16T15:15:08.326Z,7.43
2019-01-16T15:17:44.115Z,7.45
2019-01-16T15:20:14.396Z,7.49
2019-01-16T15:22:44.480Z,7.47
2019-01-16T15:25:30.650Z,7.47
2019-01-16T15:28:12.294Z,7.49
2019-01-16T15:30:47.843Z,7.47
2019-01-16T15:33:23.670Z,7.49
2019-01-16T15:36:11.890Z,7.46
2019-01-16T15:38:41.983Z,7.52
2019-01-16T15:41:12.060Z,7.44
2019-01-16T15:44:00.101Z,7.49
2019-01-16T15:46:30.203Z,7.47
2019-01-16T15:49:00.310Z,7.27
2019-01-16T15:51:45.423Z,7.36
2019-01-16T15:54:23.880Z,7.34
2019-01-16T15:57:07.067Z,7.37
2019-01-16T15:59:37.178Z,7.41
2019-01-16T16:02:13.291Z,7.35
2019-01-16T16:04:52.214Z,7.45
2019-01-16T16:07:38.503Z,7.37
2019-01-16T16:10:20.785Z,7.41
2019-01-16T16:12:53.838Z,7.24
2019-01-16T16:15:41.828Z,7.32
2019-01-16T16:18:21.231Z,7.33
2019-01-16T16:20:54.367Z,7.36
2019-01-16T16:23:33.657Z,7.27
2019-01-16T16:26:18.443Z,7.24
2019-01-16T16:28:57.461Z,7.33
2019-01-16T16:31:45.583Z,7.28
2019-01-16T16:34:15.679Z,7.24
2019-01-16T16:36:45.770Z,7.24
2019-01-16T16:39:15.877Z,7.34
2019-01-16T16:41:57.867Z,7.23
2019-01-16T16:44:42.678Z,7.28
2019-01-16T16:47:15.237Z,7.26
2019-01-16T16:49:48.381Z,7.15
2019-01-16T16:52:25.959Z,7.05
2019-01-16T16:55:02.390Z,7.19
2019-01-16T16:57:41.230Z,7.15
2019-01-16T17:00:13.937Z,7.18
2019-01-16T17:02:58.426Z,7.21
2019-01-16T17:05:28.713Z,7.22
2019-01-16T17:07:58.785Z,7.16
2019-01-16T17:10:31.591Z,7.07
2019-01-16T17:13:01.740Z,7.20
2019-01-16T17:15:48.081Z,7.18
2019-01-16T17:18:24.309Z,7.09
2019-01-16T17:21:10.439Z,7.00
2019-01-16T17:23:55.469Z,7.15
2019-01-16T17:26:25.574Z,7.00
2019-01-16T17:28:55.652Z,7.08
2019-01-16T17:31:31.492Z,7.16
2019-01-16T17:34:04.668Z,7.07
2019-01-16T17:36:51.042Z,6.99
2019-01-16T17:39:24.058Z,7.14
2019-01-16T17:42:06.174Z,7.09
2019-01-16T17:44:52.327Z,7.01
2019-01-16T17:47:22.473Z,7.06
2019-01-16T17:49:56.369Z,6.95
2019-01-16T17:52:41.831Z,6.99
2019-01-16T17:55:23.917Z,7.03
2019-01-16T17:57:56.728Z,6.94
2019-01-16T18:00:36.010Z,6.84
2019-01-16T18:03:06.186Z,6.99
2019-01-16T18:05:52.128Z,6.95
2019-01-16T18:08:25.436Z,6.95
2019-01-16T18:11:11.980Z,6.91
2019-01-16T18:13:42.060Z,6.82
2019-01-16T18:16:20.919Z,6.80
2019-01-16T18:18:51.040Z,6.87
2019-01-16T18:21:24.153Z,6.86
2019-01-16T18:24:06.481Z,6.80
2019-01-16T18:26:39.521Z,6.89
2019-01-16T18:29:09.631Z,6.80
2019-01-16T18:31:39.768Z,6.77
2019-01-16T18:34:09.862Z,6.82
2019-01-16T18:36:56.188Z,6.78
2019-01-16T18:39:32.344Z,6.72
2019-01-16T18:42:05.107Z,6.72
2019-01-16T18:44:35.193Z,6.72
2019-01-16T18:47:23.765Z,6.67
2019-01-16T18:50:06.028Z,6.58
2019-01-16T18:52:54.182Z,6.69
2019-01-16T18:55:36.496Z,6.50
2019-01-16T18:58:22.179Z,6.68
2019-01-16T19:01:07.257Z,6.55
2019-01-16T19:03:37.391Z,6.56
2019-01-16T19:06:13.751Z,6.65
2019-01-16T19:08:46.575Z,6.64
2019-01-16T19:11:19.355Z,6.64
2019-01-16T19:13:49.571Z,6.70
2019-01-16T19:16:25.616Z,6.66
2019-01-16T19:19:04.817Z,6.68
2019-01-16T19:21:37.663Z,6.66
2019-01-16T19:24:10.918Z,6.70
2019-01-16T19:26:43.956Z,6.63
2019-01-16T19:29:31.931Z,6.58
2019-01-16T19:32:02.101Z,6.65
2019-01-16T19:34:37.883Z,6.62
2019-01-16T19:37:20.345Z,6.56
2019-01-16T19:39:53.204Z,6.50
2019-01-16T19:42:23.287Z,6.55
2019-01-16T19:44:53.441Z,6.42
2019-01-16T19:47:39.880Z,6.58
2019-01-16T19:50:13.073Z,6.57
2019-01-16T19:52:43.196Z,6.62
2019-01-16T19:55:31.537Z,6.43
2019-01-16T19:58:10.530Z,6.50
2019-01-16T20:00:40.647Z,6.52
2019-01-16T20:03:17.880Z,6.49
2019-01-16T20:05:47.985Z,6.46
2019-01-16T20:08:29.821Z,6.40
2019-01-16T20:10:59.949Z,6.36
2019-01-16T20:13:32.727Z,6.36
2019-01-16T20:16:05.645Z,6.35
2019-01-16T20:18:35.743Z,6.45
2019-01-16T20:21:15.011Z,6.42
2019-01-16T20:23:48.167Z,6.28
2019-01-16T20:26:24.067Z,6.35
2019-01-16T20:28:59.869Z,6.21
2019-01-16T20:31:38.919Z,6.28
2019-01-16T20:34:11.731Z,6.17
2019-01-16T20:36:48.496Z,6.23
2019-01-16T20:39:27.959Z,6.27
2019-01-16T20:42:00.841Z,6.21
2019-01-16T20:44:43.073Z,6.04
2019-01-16T20:47:30.027Z,6.15
2019-01-16T20:50:16.126Z,6.21
2019-01-16T20:52:46.250Z,6.13
2019-01-16T20:55:22.422Z,6.13
2019-01-16T20:57:58.851Z,6.16
2019-01-16T21:00:34.914Z,6.20
2019-01-16T21:03:05.916Z,6.18
2019-01-16T21:05:40.417Z,6.13
2019-01-16T21:08:13.595Z,6.06
2019-01-16T21:10:58.513Z,6.05
2019-01-16T21:13:28.619Z,6.13
2019-01-16T21:16:01.468Z,6.07
2019-01-16T21:18:31.628Z,6.10
2019-01-16T21:21:01.742Z,6.07
2019-01-16T21:23:34.599Z,5.96
2019-01-16T21:26:04.703Z,5.96
2019-01-16T21:28:50.523Z,6.00
2019-01-16T21:31:29.358Z,6.03
2019-01-16T21:34:09.690Z,5.88
2019-01-16T21:36:45.973Z,5.84
2019-01-16T21:39:17.416Z,5.72
2019-01-16T21:41:53.230Z,5.72
2019-01-16T21:44:27.587Z,5.57
2019-01-16T21:47:09.550Z,5.48
2019-01-16T21:49:48.541Z,5.45
2019-01-16T21:52:18.674Z,5.42
2019-01-16T21:54:54.301Z,5.46
2019-01-16T21:57:24.404Z,5.40
2019-01-16T22:00:12.806Z,5.38
2019-01-16T22:02:59.183Z,5.30
2019-01-16T22:05:29.389Z,5.22
2019-01-16T22:07:59.482Z,5.13
2019-01-16T22:10:29.663Z,5.11
2019-01-16T22:12:59.748Z,5.11
2019-01-16T22:15:45.158Z,5.06
2019-01-16T22:18:15.314Z,5.13
2019-01-16T22:20:45.393Z,4.98
2019-01-16T22:23:15.527Z,5.04
2019-01-16T22:25:54.276Z,4.96
2019-01-16T22:28:27.336Z,4.88
2019-01-16T22:31:00.158Z,4.89
2019-01-16T22:33:48.038Z,4.85
2019-01-16T22:36:24.122Z,4.92
2019-01-16T22:39:00.431Z,4.72
2019-01-16T22:41:39.512Z,4.69
2019-01-16T22:44:12.438Z,4.73
2019-01-16T22:46:42.522Z,4.66
2019-01-16T22:49:15.090Z,4.61
2019-01-16T22:51:45.246Z,4.60
2019-01-16T22:54:21.186Z,4.59
2019-01-16T22:57:09.416Z,4.45
2019-01-16T22:59:54.555Z,4.51
2019-01-16T23:02:40.971Z,4.41
2019-01-16T23:05:17.426Z,4.49
2019-01-16T23:07:53.375Z,4.34
2019-01-16T23:10:26.158Z,4.46
2019-01-16T23:13:00.063Z,4.23
2019-01-16T23:15:35.920Z,4.29
2019-01-16T23:18:06.114Z,4.35
2019-01-16T23:20:42.403Z,4.34
2019-01-16T23:23:21.491Z,4.23
2019-01-16T23:25:54.583Z,4.25
2019-01-16T23:28:42.967Z,4.15
2019-01-16T23:31:13.114Z,4.15
2019-01-16T23:33:43.213Z,4.14
2019-01-16T23:36:13.319Z,4.19
2019-01-16T23:38:58.726Z,4.18
2019-01-16T23:41:34.557Z,4.15
2019-01-16T23:44:04.657Z,4.08
2019-01-16T23:46:43.453Z,3.96
2019-01-16T23:49:16.170Z,4.06
2019-01-16T23:51:52.371Z,4.10
2019-01-16T23:54:28.379Z,4.04
2019-01-16T23:57:04.350Z,3.97
2019-01-16T23:59:34.461Z,4.00
